Time;durP1;ratioP1;P1;durP2;ratioP2;P2;SDS_P1;SDS_P2;PMS_P1;PMS_P2;Temp;Humidity;BMP_temperature;BMP_pressure;BME280_temperature;BME280_humidity;BME280_pressure;Samples;Min_cycle;Max_cycle;Signal;HPM_P1;HPM_P2
2021/12/04 00:02:04;;;;;;;5.45;2.00;;;2.70;99.90;;;1.79;87.80;96095.66;5034816;28;20445;-41
2021/12/04 00:04:33;;;;;;;3.03;1.80;;;2.70;99.90;;;1.78;87.83;96101.78;5031414;28;20033;-41
2021/12/04 00:07:02;;;;;;;3.70;1.90;;;2.70;99.90;;;1.82;88.76;96095.59;5035942;28;20036;-42
2021/12/04 00:09:29;;;;;;;2.80;1.67;;;2.70;99.90;;;1.80;89.24;96074.00;5035984;28;20033;-40
2021/12/04 00:12:02;;;;;;;2.95;1.65;;;2.70;99.90;;;1.90;87.72;96080.66;5033519;28;20033;-41
2021/12/04 00:14:34;;;;;;;2.33;1.80;;;2.70;99.90;;;1.85;88.65;96077.34;5034016;28;20041;-41
2021/12/04 00:17:00;;;;;;;2.25;1.55;;;2.80;99.90;;;1.86;89.44;96064.28;5034256;28;20033;-41
2021/12/04 00:19:28;;;;;;;4.30;2.05;;;2.80;99.90;;;1.90;89.82;96052.06;5033972;28;20566;-42
2021/12/04 00:21:54;;;;;;;3.53;2.00;;;2.70;99.90;;;1.93;87.55;96049.41;5032958;28;20048;-40
2021/12/04 00:24:21;;;;;;;2.45;1.73;;;2.80;99.90;;;1.93;88.76;96049.41;5036326;28;20036;-41
2021/12/04 00:26:48;;;;;;;2.65;1.98;;;2.80;99.90;;;1.94;89.48;96038.13;5032056;28;20033;-42
2021/12/04 00:29:14;;;;;;;6.70;2.30;;;2.80;99.90;;;1.92;89.80;96042.50;5033012;28;20033;-42
2021/12/04 00:31:47;;;;;;;2.55;1.63;;;2.80;99.90;;;1.99;88.53;96040.59;5034761;28;20064;-41
2021/12/04 00:34:13;;;;;;;3.90;2.13;;;2.80;99.90;;;1.95;89.79;96034.63;5036440;28;20057;-42
2021/12/04 00:50:26;;;;;;;2.25;1.73;;;2.90;99.90;;;1.97;90.54;96026.78;5038929;28;20036;-42
2021/12/04 00:52:52;;;;;;;2.85;1.83;;;2.90;99.90;;;2.00;90.64;96024.94;5039304;28;20449;-41
2021/12/04 00:55:18;;;;;;;3.38;1.90;;;2.90;99.90;;;2.00;91.31;96014.56;5039117;28;20304;-41
2021/12/04 00:57:43;;;;;;;3.00;1.88;;;2.90;99.90;;;2.04;91.51;96007.53;5039716;28;20068;-42
2021/12/04 01:00:10;;;;;;;3.38;1.90;;;2.90;99.90;;;2.03;90.98;95998.88;5040058;28;20056;-43
2021/12/04 01:02:35;;;;;;;4.50;2.13;;;2.90;99.90;;;2.04;91.16;95991.94;5039154;28;20067;-41
2021/12/04 01:05:01;;;;;;;3.83;1.75;;;2.90;99.90;;;2.05;90.49;95983.25;5051953;28;20224;-42
2021/12/04 01:07:27;;;;;;;4.50;1.80;;;2.90;99.90;;;2.08;90.71;95965.81;5037337;28;20067;-42
2021/12/04 01:09:54;;;;;;;2.83;1.80;;;2.90;99.90;;;2.10;91.49;95966.63;5039479;28;20021;-41
2021/12/04 01:12:19;;;;;;;3.10;2.10;;;3.00;99.90;;;2.13;91.88;95973.47;5038157;28;20074;-40
2021/12/04 01:14:45;;;;;;;3.40;1.80;;;3.00;99.90;;;2.14;92.66;95961.34;5037044;28;20405;-40
2021/12/04 01:17:11;;;;;;;3.47;1.83;;;3.00;99.90;;;2.18;93.96;95958.59;5036331;28;20045;-40
2021/12/04 01:19:37;;;;;;;3.20;1.80;;;3.00;99.90;;;2.21;93.63;95950.72;5036104;28;20757;-40
2021/12/04 01:22:04;;;;;;;3.65;2.15;;;3.00;99.90;;;2.20;93.38;95958.56;5041105;28;20062;-41
2021/12/04 01:24:31;;;;;;;3.92;1.70;;;3.00;99.90;;;2.19;94.35;95951.66;5035582;28;20076;-41
2021/12/04 01:26:57;;;;;;;3.63;1.95;;;3.00;99.90;;;2.17;96.39;95932.63;5038610;28;20127;-41
2021/12/04 01:29:23;;;;;;;4.45;2.00;;;3.00;99.90;;;2.21;97.41;95942.09;5035646;28;20140;-41
2021/12/04 01:31:49;;;;;;;2.75;1.92;;;3.00;99.90;;;2.16;99.45;95934.41;5036960;28;20035;-41
2021/12/04 01:34:15;;;;;;;3.85;2.10;;;3.00;99.90;;;2.11;100.00;95933.66;5037048;28;20028;-41
2021/12/04 01:36:41;;;;;;;4.78;2.30;;;3.00;99.90;;;2.10;100.00;95932.81;5037302;28;20579;-41
2021/12/04 01:39:08;;;;;;;3.92;2.05;;;2.90;99.90;;;2.08;100.00;95931.13;5037190;28;20039;-42
2021/12/04 01:41:35;;;;;;;2.28;1.90;;;2.90;99.90;;;2.05;100.00;95929.47;5033187;28;20549;-42
2021/12/04 01:44:03;;;;;;;3.30;2.20;;;2.90;99.90;;;2.04;100.00;95938.16;5036593;28;20311;-44
2021/12/04 01:46:30;;;;;;;7.22;2.13;;;2.90;99.90;;;2.00;100.00;95944.34;5035436;28;20153;-41
2021/12/04 01:48:56;;;;;;;2.83;1.80;;;2.90;99.90;;;1.99;100.00;95923.59;5039680;28;20086;-41
2021/12/04 01:51:22;;;;;;;5.03;2.10;;;2.90;99.90;;;1.91;100.00;95921.19;5035842;28;20104;-43
2021/12/04 01:53:48;;;;;;;2.75;1.90;;;2.90;99.90;;;1.91;100.00;95908.19;5035897;28;20040;-42
2021/12/04 01:56:15;;;;;;;8.13;2.50;;;2.90;99.90;;;1.93;100.00;95922.00;5037433;28;20037;-41
2021/12/04 01:58:42;;;;;;;3.92;2.20;;;2.80;99.90;;;1.89;100.00;95920.38;5038367;28;20116;-42
2021/12/04 02:01:09;;;;;;;4.57;2.25;;;2.80;99.90;;;1.96;100.00;95910.69;5038773;28;20112;-41
2021/12/04 02:03:35;;;;;;;3.75;2.08;;;2.80;99.90;;;1.98;100.00;95908.91;5033986;28;20116;-41
2021/12/04 02:06:01;;;;;;;4.18;2.30;;;2.80;99.90;;;1.88;100.00;95901.34;5035479;28;20045;-41
2021/12/04 02:08:27;;;;;;;4.28;2.47;;;2.80;99.90;;;1.83;100.00;95889.34;5035507;28;20028;-41
2021/12/04 02:10:57;;;;;;;3.72;2.20;;;2.70;99.90;;;1.80;100.00;95887.69;5037433;28;20029;-43
2021/12/04 02:13:23;;;;;;;3.03;2.13;;;2.70;99.90;;;1.80;100.00;95884.25;5038958;28;20025;-41
2021/12/04 02:15:50;;;;;;;2.88;1.90;;;2.70;99.90;;;1.71;100.00;95868.00;5036655;28;20037;-42
2021/12/04 02:18:19;;;;;;;4.15;2.80;;;2.60;99.90;;;1.78;100.00;95873.88;5034991;28;20399;-41
2021/12/04 02:20:45;;;;;;;4.10;2.30;;;2.70;99.90;;;1.78;100.00;95863.50;5034560;28;20179;-40
2021/12/04 02:23:11;;;;;;;6.95;2.17;;;2.60;99.90;;;1.79;100.00;95875.56;5035853;28;20115;-40
2021/12/04 02:25:38;;;;;;;4.60;2.08;;;2.60;99.90;;;1.76;100.00;95877.41;5034578;28;20174;-41
2021/12/04 02:28:10;;;;;;;3.20;2.45;;;2.60;99.90;;;1.74;100.00;95861.84;5036011;28;20036;-43
2021/12/04 02:30:41;;;;;;;4.70;2.33;;;2.60;99.90;;;1.72;100.00;95855.84;5036080;28;20851;-43
2021/12/04 02:33:16;;;;;;;3.27;2.00;;;2.60;99.90;;;1.73;100.00;95851.50;5038010;28;20284;-42
2021/12/04 02:35:48;;;;;;;3.45;2.30;;;2.60;99.90;;;1.74;100.00;95858.41;5036325;28;20319;-44
2021/12/04 02:38:15;;;;;;;;;;;2.60;99.90;;;1.72;100.00;95845.44;5038660;28;20064;-40
2021/12/04 02:40:43;;;;;;;4.25;1.88;;;2.60;99.90;;;1.78;100.00;95844.44;5035690;28;19927;-44
2021/12/04 02:43:09;;;;;;;4.30;2.30;;;2.60;99.90;;;1.74;100.00;95841.06;5037426;28;20465;-41
2021/12/04 02:45:35;;;;;;;4.97;2.30;;;2.60;99.90;;;1.69;100.00;95836.00;5032374;28;20072;-43
2021/12/04 02:48:01;;;;;;;3.85;2.13;;;2.60;99.90;;;1.69;100.00;95838.59;5037914;28;20418;-41
2021/12/04 02:50:26;;;;;;;3.42;2.47;;;2.60;99.90;;;1.70;100.00;95836.84;5035775;28;20929;-42
2021/12/04 02:52:52;;;;;;;5.13;2.33;;;2.50;99.90;;;1.66;100.00;95815.28;5035088;28;20049;-44
2021/12/04 02:55:19;;;;;;;3.97;2.65;;;2.50;99.90;;;1.62;100.00;95813.66;5035447;28;20605;-42
2021/12/04 02:57:45;;;;;;;5.63;2.42;;;2.60;99.90;;;1.60;100.00;95810.25;5033493;28;20029;-45
2021/12/04 03:00:30;;;;;;;4.72;2.40;;;2.50;99.90;;;1.51;100.00;95800.13;5035736;28;20041;-41
2021/12/04 03:02:56;;;;;;;4.85;2.60;;;2.50;99.90;;;1.56;100.00;95805.19;5036219;28;20075;-40
2021/12/04 03:05:26;;;;;;;3.08;2.25;;;2.50;99.90;;;1.57;100.00;95801.69;5034221;28;20037;-41
2021/12/04 03:07:54;;;;;;;4.13;2.75;;;2.50;99.90;;;1.60;100.00;95797.28;5035663;28;20402;-41
2021/12/04 03:10:20;;;;;;;5.57;2.53;;;2.40;99.90;;;1.55;100.00;95793.94;5036504;28;20037;-44
2021/12/04 03:12:46;;;;;;;5.25;2.50;;;2.40;99.90;;;1.61;100.00;95796.34;5033836;28;20686;-42
2021/12/04 03:15:12;;;;;;;3.85;2.20;;;2.50;99.90;;;1.61;100.00;95785.97;5034641;28;20067;-44
2021/12/04 03:17:38;;;;;;;3.75;2.28;;;2.50;99.90;;;1.58;100.00;95788.66;5036456;28;20029;-43
2021/12/04 03:20:06;;;;;;;4.40;2.75;;;2.50;99.90;;;1.58;100.00;95780.88;5034371;28;20033;-41
2021/12/04 03:22:32;;;;;;;4.15;2.80;;;2.50;99.90;;;1.59;100.00;95773.94;5032298;28;20032;-40
2021/12/04 03:24:58;;;;;;;6.15;3.10;;;2.50;99.90;;;1.63;100.00;95765.97;5034274;28;20103;-40
2021/12/04 03:27:26;;;;;;;4.25;2.92;;;2.50;99.90;;;1.57;100.00;95755.78;5032991;28;20027;-40
2021/12/04 03:29:56;;;;;;;3.13;2.63;;;2.50;99.90;;;1.61;100.00;95756.53;5036172;28;20031;-42
2021/12/04 03:40:53;;;;;;;3.40;2.75;;;2.50;99.90;;;1.62;100.00;95720.13;5032340;28;20130;-42
2021/12/04 03:43:19;;;;;;;5.32;3.17;;;2.40;99.90;;;1.63;100.00;95724.41;5032336;28;20111;-41
2021/12/04 03:45:48;;;;;;;5.97;2.92;;;2.50;99.90;;;1.60;100.00;95719.31;5035431;28;20033;-42
2021/12/04 03:48:28;;;;;;;4.55;3.13;;;2.50;99.90;;;1.67;100.00;95715.66;5034258;28;20031;-43
2021/12/04 03:50:55;;;;;;;3.47;2.40;;;2.50;99.90;;;1.70;100.00;95712.94;5034271;28;20124;-41
2021/12/04 03:53:21;;;;;;;5.63;2.40;;;2.50;99.90;;;1.73;100.00;95705.97;5034778;28;20029;-41
2021/12/04 03:55:46;;;;;;;4.47;2.33;;;2.60;99.90;;;1.71;100.00;95701.66;5037731;28;20043;-42
2021/12/04 03:58:12;;;;;;;5.45;3.10;;;2.60;99.90;;;1.68;100.00;95691.34;5036435;28;20538;-41
2021/12/04 04:00:38;;;;;;;3.95;2.40;;;2.60;99.90;;;1.77;100.00;95689.38;5032094;28;20026;-42
2021/12/04 04:03:04;;;;;;;6.28;3.03;;;2.60;99.90;;;1.70;100.00;95693.91;5033964;28;20036;-41
2021/12/04 04:05:29;;;;;;;4.50;2.97;;;2.60;99.90;;;1.75;100.00;95686.00;5033177;28;20035;-40
2021/12/04 04:07:55;;;;;;;3.65;2.25;;;2.60;99.90;;;1.73;100.00;95688.63;5033456;28;20051;-43
2021/12/04 04:10:21;;;;;;;3.58;2.53;;;2.60;99.90;;;1.73;100.00;95680.00;5035608;28;20614;-42
2021/12/04 04:12:48;;;;;;;3.92;2.60;;;2.60;99.90;;;1.76;100.00;95679.88;5036506;28;20071;-42
2021/12/04 04:15:15;;;;;;;4.85;2.35;;;2.60;99.90;;;1.81;100.00;95665.88;5035724;28;20059;-41
2021/12/04 04:17:43;;;;;;;4.15;2.28;;;2.70;99.90;;;1.82;100.00;95667.56;5033851;28;20139;-42
2021/12/04 04:20:16;;;;;;;2.97;2.20;;;2.70;99.90;;;1.73;100.00;95639.25;5033800;28;20044;-43
2021/12/04 04:22:44;;;;;;;3.20;2.22;;;2.70;99.90;;;1.88;100.00;95651.78;5034543;28;20498;-41
2021/12/04 04:25:12;;;;;;;2.97;2.00;;;2.70;99.90;;;1.94;100.00;95645.56;5036671;28;20123;-41
2021/12/04 04:27:39;;;;;;;5.18;2.45;;;2.80;99.90;;;2.00;100.00;95649.72;5035193;28;20029;-41
2021/12/04 04:30:13;;;;;;;4.65;2.30;;;2.80;99.90;;;1.99;100.00;95638.47;5036000;28;20033;-41
2021/12/04 04:32:40;;;;;;;3.78;2.38;;;2.80;99.90;;;1.97;100.00;95642.00;5034796;28;20032;-41
2021/12/04 04:35:10;;;;;;;4.00;2.42;;;2.80;99.90;;;2.00;100.00;95644.50;5036777;28;20033;-43
2021/12/04 04:57:28;;;;;;;3.90;2.50;;;2.90;99.90;;;2.06;100.00;95634.78;5032203;28;20049;-42
2021/12/04 05:00:55;;;;;;;5.18;3.05;;;3.00;99.90;;;2.22;100.00;95613.47;5034232;28;20032;-42
2021/12/04 05:10:16;;;;;;;5.20;2.85;;;3.00;99.90;;;2.24;100.00;95617.72;5026993;28;20804;-43
2021/12/04 05:11:18;;;;;;;4.30;3.10;;;3.00;99.90;;;2.24;100.00;95604.72;5034582;28;20051;-42
2021/12/04 05:13:45;;;;;;;5.57;3.60;;;3.00;99.90;;;2.21;100.00;95606.56;5033430;28;20032;-42
2021/12/04 05:16:20;;;;;;;5.43;3.20;;;3.00;99.90;;;2.23;100.00;95602.16;5033646;28;20028;-42
2021/12/04 05:18:57;;;;;;;5.63;3.15;;;3.00;99.90;;;2.23;100.00;95589.16;5035786;28;20301;-42
2021/12/04 05:21:23;;;;;;;4.85;3.30;;;3.00;99.90;;;2.24;100.00;95590.84;5033871;28;20458;-44
2021/12/04 05:23:58;;;;;;;5.55;3.53;;;3.00;99.90;;;2.26;100.00;95589.03;5037157;28;20268;-42
2021/12/04 05:26:27;;;;;;;5.28;3.30;;;3.00;99.90;;;2.25;100.00;95584.75;5038487;28;20028;-41
2021/12/04 05:28:58;;;;;;;4.93;3.42;;;3.00;99.90;;;2.22;100.00;95580.50;5040117;28;20037;-41
2021/12/04 05:31:24;;;;;;;4.97;3.33;;;3.00;99.90;;;2.19;100.00;95580.63;5038007;28;20510;-40
2021/12/04 05:33:51;;;;;;;5.30;3.65;;;3.00;99.90;;;2.25;100.00;95575.19;5038642;28;20088;-41
2021/12/04 05:36:17;;;;;;;6.25;3.30;;;3.10;99.90;;;2.25;100.00;95575.19;5036228;28;20456;-41
2021/12/04 05:38:43;;;;;;;6.53;3.60;;;3.10;99.90;;;2.25;100.00;95564.78;5038605;28;20037;-41
2021/12/04 05:41:09;;;;;;;5.18;3.53;;;3.10;99.90;;;2.33;100.00;95577.53;5038655;28;20478;-42
2021/12/04 05:43:36;;;;;;;7.75;3.67;;;3.10;99.90;;;2.33;100.00;95566.28;5036893;28;20044;-41
2021/12/04 05:53:40;;;;;;;5.10;3.80;;;3.20;99.90;;;2.39;100.00;95564.34;5031656;28;20025;-43
2021/12/04 05:56:06;;;;;;;5.32;3.63;;;3.20;99.90;;;2.41;100.00;95554.72;5038756;28;20035;-42
2021/12/04 05:58:33;;;;;;;4.22;3.33;;;3.20;99.90;;;2.38;100.00;95551.38;5038116;28;20029;-42
2021/12/04 06:01:05;;;;;;;6.22;3.45;;;3.20;99.90;;;2.43;100.00;95552.06;5039959;28;20025;-43
2021/12/04 06:03:31;;;;;;;;;;;3.20;99.90;;;2.46;100.00;95549.38;5035486;28;20045;-42
2021/12/04 06:05:58;;;;;;;3.92;2.63;;;3.30;99.90;;;2.48;100.00;95558.81;5055316;28;20259;-41
2021/12/04 06:08:24;;;;;;;4.75;3.40;;;3.30;99.90;;;2.52;100.00;95556.09;5037937;28;20116;-42
2021/12/04 06:10:50;;;;;;;5.50;2.78;;;3.30;99.90;;;2.35;100.00;95531.53;5037917;28;20037;-42
2021/12/04 06:13:16;;;;;;;4.53;3.20;;;3.30;99.90;;;2.50;100.00;95548.34;5034974;28;20017;-42
2021/12/04 06:15:42;;;;;;;4.38;2.83;;;3.40;99.90;;;2.51;100.00;95541.38;5036513;28;20043;-42
2021/12/04 06:18:08;;;;;;;4.38;3.20;;;3.30;99.90;;;2.57;100.00;95541.19;5037056;28;20040;-43
2021/12/04 06:23:21;;;;;;;5.00;2.70;;;3.40;99.90;;;2.60;100.00;95539.31;5036966;28;20505;-42
2021/12/04 06:25:47;;;;;;;4.15;2.70;;;3.40;99.90;;;2.66;100.00;95540.88;5036955;28;20030;-42
2021/12/04 06:28:13;;;;;;;3.67;2.65;;;3.40;99.90;;;2.73;100.00;95544.94;5040346;28;20094;-41
2021/12/04 06:30:41;;;;;;;3.47;2.63;;;3.50;99.90;;;2.75;100.00;95552.69;5034741;28;20546;-41
2021/12/04 06:33:10;;;;;;;2.75;2.03;;;3.50;99.90;;;2.75;100.00;95532.72;5034552;28;20032;-41
2021/12/04 06:35:39;;;;;;;4.50;2.80;;;3.50;99.90;;;2.77;100.00;95530.91;5034384;28;20037;-42
2021/12/04 06:38:06;;;;;;;4.95;3.00;;;3.60;99.90;;;2.77;100.00;95528.31;5036721;28;20433;-43
2021/12/04 06:40:32;;;;;;;4.20;2.50;;;3.60;99.90;;;2.81;100.00;95511.66;5049795;28;20028;-42
2021/12/04 06:42:59;;;;;;;5.10;2.40;;;3.60;99.90;;;2.86;100.00;95514.94;5035748;28;20545;-42
2021/12/04 06:45:29;;;;;;;3.00;2.05;;;3.70;99.90;;;2.90;100.00;95513.06;5036386;28;20072;-42
2021/12/04 06:48:05;;;;;;;2.80;2.00;;;3.70;99.90;;;2.93;100.00;95517.34;5037923;28;20389;-42
2021/12/04 06:50:57;;;;;;;2.05;1.40;;;3.80;99.90;;;2.89;100.00;95505.31;5033450;28;20571;-43
2021/12/04 06:53:39;;;;;;;3.65;2.00;;;3.80;99.90;;;3.06;100.00;95522.00;5036217;28;20112;-43
2021/12/04 06:56:07;;;;;;;;;;;3.80;99.90;;;3.07;100.00;95522.88;5033106;28;20037;-42
2021/12/04 06:58:33;;;;;;;1.13;0.80;;;3.90;99.90;;;3.13;100.00;95514.81;5037364;28;19921;-41
2021/12/04 07:00:59;;;;;;;2.72;0.90;;;3.90;99.90;;;3.16;100.00;95514.72;5036167;28;20031;-40
2021/12/04 07:03:25;;;;;;;2.65;0.70;;;4.00;99.90;;;2.58;100.00;95413.59;5048539;22;20171;-85
2021/12/04 07:05:51;;;;;;;0.98;0.47;;;4.00;99.90;;;2.91;100.00;95441.88;5002480;28;20274;-86
2021/12/04 07:08:17;;;;;;;1.00;0.30;;;4.10;99.90;;;3.25;100.00;95498.72;4987882;28;20053;-86
2021/12/04 07:10:43;;;;;;;0.73;0.30;;;4.10;99.90;;;3.50;100.00;95510.81;4970841;28;20018;-86
2021/12/04 07:13:09;;;;;;;1.15;0.30;;;4.20;99.90;;;3.47;100.00;95512.69;4989139;28;20027;-85
2021/12/04 07:15:35;;;;;;;1.27;0.20;;;4.30;99.90;;;3.52;100.00;95503.78;4997824;28;20336;-86
2021/12/04 07:18:02;;;;;;;0.60;0.28;;;4.40;99.90;;;3.60;100.00;95512.13;5001058;28;20253;-86
2021/12/04 07:20:29;;;;;;;0.20;0.20;;;4.40;99.90;;;3.52;100.00;95498.56;4997138;28;20037;-86
2021/12/04 07:22:55;;;;;;;0.93;0.28;;;4.40;99.90;;;3.67;100.00;95515.34;5000314;28;20466;-85
2021/12/04 07:25:21;;;;;;;1.15;0.40;;;4.40;99.90;;;3.59;100.00;95496.56;5003726;28;20363;-86
2021/12/04 07:27:50;;;;;;;0.82;0.30;;;4.50;99.90;;;3.56;100.00;95479.28;5002322;28;20048;-86
2021/12/04 07:30:16;;;;;;;0.35;0.28;;;4.50;99.90;;;3.70;100.00;95483.13;5002381;28;20415;-85
2021/12/04 07:32:42;;;;;;;0.45;0.30;;;4.60;99.90;;;3.82;100.00;95493.03;4989018;28;20024;-85
2021/12/04 07:35:08;;;;;;;0.47;0.20;;;4.60;99.90;;;3.75;100.00;95487.22;5001701;28;20632;-86
2021/12/04 07:37:34;;;;;;;0.45;0.20;;;4.60;99.90;;;3.71;100.00;95483.03;5003315;28;20415;-86
2021/12/04 07:40:00;;;;;;;0.10;0.10;;;4.60;99.90;;;3.65;100.00;95462.44;4982074;28;20034;-85
2021/12/04 07:42:25;;;;;;;1.02;0.30;;;4.70;99.90;;;3.70;100.00;95478.75;4979259;28;20034;-85
2021/12/04 07:44:51;;;;;;;1.00;0.28;;;4.70;99.90;;;3.93;100.00;95495.19;5002323;28;20057;-85
2021/12/04 07:47:17;;;;;;;0.38;0.28;;;4.70;99.90;;;3.77;100.00;95461.09;4986219;28;20033;-85
2021/12/04 07:49:43;;;;;;;0.70;0.40;;;4.70;99.90;;;4.00;100.00;95481.84;4990376;28;20034;-87
2021/12/04 07:52:10;;;;;;;0.45;0.30;;;4.80;99.90;;;4.04;100.00;95493.00;5000982;28;20033;-86
2021/12/04 07:54:36;;;;;;;0.82;0.38;;;4.80;99.90;;;3.77;100.00;95461.94;5000886;28;20475;-86
2021/12/04 07:57:03;;;;;;;0.65;0.50;;;4.80;99.90;;;3.79;100.00;95454.06;4998728;28;20222;-85
2021/12/04 07:59:29;;;;;;;3.25;0.35;;;4.90;99.90;;;4.16;100.00;95507.28;4983836;28;20022;-85
2021/12/04 08:01:56;;;;;;;0.60;0.30;;;4.90;99.90;;;4.15;100.00;95503.81;5000580;28;20041;-85
2021/12/04 08:04:23;;;;;;;0.20;0.20;;;4.90;99.90;;;4.07;100.00;95471.16;4983920;28;20030;-85
2021/12/04 08:06:50;;;;;;;0.63;0.40;;;5.00;99.90;;;4.22;100.00;95496.59;4993071;28;20030;-86
2021/12/04 08:09:16;;;;;;;0.52;0.35;;;5.00;99.90;;;4.23;100.00;95500.06;4986711;28;20022;-85
2021/12/04 08:11:42;;;;;;;1.85;0.45;;;5.10;99.90;;;4.28;100.00;95479.84;5000556;28;20026;-85
2021/12/04 08:14:07;;;;;;;0.38;0.32;;;5.10;99.90;;;4.39;100.00;95496.72;5001187;28;20026;-85
2021/12/04 08:16:34;;;;;;;0.88;0.30;;;5.20;99.90;;;4.51;100.00;95491.91;4982450;28;20508;-86
2021/12/04 08:19:00;;;;;;;0.40;0.30;;;5.20;99.90;;;4.37;100.00;95469.84;5001736;28;20146;-85
2021/12/04 08:21:26;;;;;;;1.10;0.57;;;5.30;99.90;;;4.58;100.00;95490.72;5003328;28;20114;-85
2021/12/04 08:23:52;;;;;;;0.47;0.40;;;5.30;99.90;;;4.55;100.00;95475.19;5000947;28;20109;-85
2021/12/04 08:26:19;;;;;;;1.52;0.50;;;5.40;99.90;;;4.71;100.00;95480.56;5000919;28;20087;-86
2021/12/04 08:28:47;;;;;;;0.85;0.50;;;5.40;99.90;;;4.77;100.00;95488.13;4986139;28;20617;-85
2021/12/04 08:31:13;;;;;;;0.45;0.40;;;5.50;99.90;;;4.76;100.00;95476.84;5019939;28;20038;-85
2021/12/04 08:33:39;;;;;;;0.25;0.25;;;5.50;99.90;;;4.88;100.00;95479.81;4990341;28;20046;-85
2021/12/04 08:36:05;;;;;;;0.70;0.40;;;5.60;99.90;;;4.90;100.00;95473.59;4985446;28;20034;-86
2021/12/04 08:38:32;;;;;;;0.90;0.40;;;5.60;99.90;;;4.96;100.00;95489.00;5000126;28;20034;-85
2021/12/04 08:41:01;;;;;;;0.38;0.35;;;5.70;99.90;;;5.04;100.00;95486.03;4997724;28;20080;-85
2021/12/04 08:43:27;;;;;;;0.80;0.55;;;5.80;99.90;;;5.05;100.00;95473.81;4985528;28;20403;-85
2021/12/04 08:45:53;;;;;;;1.13;0.50;;;5.80;99.90;;;5.04;100.00;95467.72;4979720;28;20030;-85
2021/12/04 08:48:19;;;;;;;0.93;0.40;;;5.80;99.90;;;5.15;100.00;95482.91;4983699;28;20026;-85
2021/12/04 08:50:45;;;;;;;1.40;0.57;;;5.90;99.90;;;5.05;100.00;95461.59;4981731;28;20018;-85
2021/12/04 08:53:13;;;;;;;0.77;0.50;;;5.90;99.90;;;5.16;100.00;95477.63;4997730;28;20088;-85
2021/12/04 08:55:40;;;;;;;0.65;0.50;;;5.90;99.90;;;5.20;100.00;95474.88;4981464;28;20565;-85
2021/12/04 08:58:07;;;;;;;0.63;0.45;;;6.00;99.90;;;5.11;100.00;95447.41;5002072;28;20080;-85
2021/12/04 09:01:03;;;;;;;0.65;0.52;;;6.00;99.90;;;5.28;100.00;95478.00;4998536;28;20052;-85
2021/12/04 09:03:38;;;;;;;0.60;0.40;;;6.00;99.90;;;5.27;100.00;95469.28;4996004;28;20133;-85
2021/12/04 09:06:05;;;;;;;0.38;0.30;;;6.10;99.90;;;5.34;100.00;95477.69;5011689;28;20038;-85
2021/12/04 09:08:33;;;;;;;1.65;0.65;;;6.10;99.90;;;5.46;100.00;95482.34;5001110;28;20032;-85
2021/12/04 09:11:07;;;;;;;0.70;0.45;;;6.20;99.90;;;5.39;100.00;95446.13;5002615;28;20033;-85
2021/12/04 09:13:34;;;;;;;0.70;0.50;;;6.30;99.90;;;5.40;100.00;95427.75;5002110;28;20104;-85
2021/12/04 09:16:01;;;;;;;1.38;0.70;;;6.30;99.90;;;5.59;100.00;95448.59;5000770;28;20034;-85
2021/12/04 09:18:27;;;;;;;1.90;0.60;;;6.40;99.90;;;5.62;100.00;95445.84;4996264;28;20029;-85
2021/12/04 09:20:55;;;;;;;1.75;0.55;;;6.50;99.90;;;5.65;100.00;95435.25;4983604;28;21319;-85
2021/12/04 09:23:22;;;;;;;1.23;0.60;;;6.60;99.90;;;5.91;100.00;95473.19;5022730;23;20511;-40
2021/12/04 09:25:52;;;;;;;0.40;0.40;;;6.60;99.90;;;5.97;100.00;95466.00;4981189;28;20761;-45
2021/12/04 09:28:23;;;;;;;1.40;0.60;;;6.70;99.90;;;6.04;100.00;95468.22;4984004;28;20042;-46
2021/12/04 10:00:42;;;;;;;3.28;0.55;;;7.30;99.90;;;6.64;100.00;95448.59;4982770;28;20514;-45
2021/12/04 10:20:12;;;;;;;1.20;0.40;;;7.90;99.90;;;7.29;100.00;95398.81;4979031;28;20400;-42
2021/12/04 10:33:47;;;;;;;0.65;0.45;;;8.50;99.90;;;7.99;100.00;95379.97;4980531;28;20606;-45
2021/12/04 10:36:28;;;;;;;1.15;0.40;;;8.60;99.90;;;8.07;100.00;95374.25;4982704;28;20031;-45
2021/12/04 10:38:55;;;;;;;0.40;0.40;;;8.70;99.90;;;8.09;100.00;95367.13;4982186;28;20125;-46
2021/12/04 10:41:35;;;;;;;1.27;0.40;;;8.80;99.90;;;8.11;100.00;95360.88;4979762;28;20492;-42
2021/12/04 10:44:20;;;;;;;1.45;0.45;;;8.90;99.90;;;8.19;100.00;95358.59;4978465;28;20038;-46
2021/12/04 10:47:07;;;;;;;2.22;0.40;;;8.90;99.90;;;8.31;100.00;95358.78;4979044;28;20920;-45
2021/12/04 10:49:52;;;;;;;0.95;0.40;;;9.00;99.90;;;8.44;100.00;95357.16;4980351;28;20026;-47
2021/12/04 10:52:49;;;;;;;1.33;0.30;;;9.10;99.90;;;8.58;100.00;95343.19;4976055;28;20092;-46
2021/12/04 10:55:30;;;;;;;0.98;0.40;;;9.20;99.90;;;8.66;100.00;95346.16;4973481;28;20031;-46
2021/12/04 11:04:13;;;;;;;1.67;0.43;;;9.50;99.90;;;8.75;100.00;95324.56;4980363;28;20532;-49
2021/12/04 11:20:13;;;;;;;1.45;0.60;;;9.80;99.90;;;9.03;100.00;95308.84;4979904;28;20093;-45
2021/12/04 11:39:22;;;;;;;3.40;0.70;;;9.90;99.90;;;9.18;100.00;95287.66;4976659;28;20421;-45
2021/12/04 11:42:07;;;;;;;0.57;0.45;;;9.80;99.90;;;9.19;100.00;95293.78;4979453;28;20404;-47
2021/12/04 11:45:03;;;;;;;1.33;0.50;;;9.80;99.90;;;9.23;100.00;95291.78;4976331;28;20041;-44
2021/12/04 11:47:37;;;;;;;0.82;0.50;;;9.80;99.90;;;9.14;100.00;95290.59;4975145;28;20109;-51
2021/12/04 11:50:28;;;;;;;2.17;0.70;;;9.90;99.90;;;9.08;100.00;95283.94;4979262;28;20022;-46
2021/12/04 11:52:59;;;;;;;0.60;0.30;;;9.80;99.90;;;9.12;100.00;95276.72;4976909;28;20056;-46
2021/12/04 11:55:28;;;;;;;0.50;0.32;;;9.70;99.90;;;9.06;100.00;95272.69;4976978;28;20280;-48
2021/12/04 11:57:56;;;;;;;4.57;0.57;;;9.70;99.90;;;8.88;100.00;95245.81;4980283;28;20484;-45
2021/12/04 12:00:28;;;;;;;0.98;0.60;;;9.70;99.90;;;9.08;100.00;95255.03;4978203;28;20073;-47
2021/12/04 12:03:18;;;;;;;1.45;0.63;;;9.70;99.90;;;9.11;100.00;95239.03;4972660;28;20748;-46
2021/12/04 12:05:48;;;;;;;0.43;0.30;;;9.80;99.90;;;9.13;100.00;95241.56;4976236;28;20206;-45
2021/12/04 12:08:29;;;;;;;1.55;0.68;;;9.80;99.90;;;9.18;100.00;95237.69;4973009;28;20493;-48
2021/12/04 12:11:06;;;;;;;0.43;0.43;;;9.80;99.90;;;9.19;100.00;95230.66;4973325;28;20042;-49
2021/12/04 12:13:38;;;;;;;2.95;0.60;;;9.80;99.90;;;9.26;100.00;95217.94;4971984;28;20026;-48
2021/12/04 12:16:21;;;;;;;1.55;0.52;;;9.90;99.90;;;9.26;100.00;95216.16;4974707;28;20030;-44
2021/12/04 12:18:58;;;;;;;0.57;0.40;;;9.90;99.90;;;9.32;100.00;95214.91;4974933;28;20049;-46
2021/12/04 12:21:32;;;;;;;0.50;0.40;;;9.90;99.90;;;9.26;100.00;95220.56;4978604;28;20058;-45
2021/12/04 12:33:19;;;;;;;0.80;0.40;;;9.90;99.90;;;9.25;100.00;95203.94;4980771;28;20033;-47
2021/12/04 12:36:09;;;;;;;1.40;0.40;;;9.90;99.90;;;9.26;100.00;95207.41;4980885;28;20034;-45
2021/12/04 12:38:43;;;;;;;1.38;0.52;;;9.90;99.90;;;9.28;100.00;95208.16;4983884;28;20030;-46
2021/12/04 12:41:48;;;;;;;0.35;0.30;;;9.90;99.90;;;9.21;100.00;95220.88;4982901;28;20531;-45
2021/12/04 12:44:29;;;;;;;0.50;0.50;;;9.80;99.90;;;9.12;100.00;95219.69;4983955;28;20034;-51
2021/12/04 12:47:03;;;;;;;0.52;0.50;;;9.80;99.90;;;9.08;100.00;95202.44;4983036;28;20018;-40
2021/12/04 12:49:39;;;;;;;1.10;0.60;;;9.80;99.90;;;9.04;100.00;95211.44;4980981;28;20030;-46
2021/12/04 12:52:13;;;;;;;0.85;0.60;;;9.70;99.90;;;9.09;100.00;95211.16;4982577;28;20049;-47
2021/12/04 12:55:00;;;;;;;1.85;0.60;;;9.70;99.90;;;9.07;100.00;95194.66;4982167;28;20424;-46
2021/12/04 12:57:36;;;;;;;1.00;0.60;;;9.70;99.90;;;9.05;100.00;95197.38;4983408;28;20522;-48
2021/12/04 13:11:55;;;;;;;1.25;0.47;;;9.50;99.90;;;8.92;100.00;95192.09;4981720;28;20053;-47
2021/12/04 13:14:24;;;;;;;2.25;0.50;;;9.50;99.90;;;8.81;100.00;95191.97;4981845;28;20496;-48
2021/12/04 13:17:19;;;;;;;1.85;0.80;;;9.40;99.90;;;8.86;100.00;95202.16;4983681;28;20485;-48
2021/12/04 13:19:51;;;;;;;1.95;0.60;;;9.40;99.90;;;8.67;100.00;95200.72;4982834;28;20065;-47
2021/12/04 13:22:20;;;;;;;;;;;9.30;99.90;;;8.65;100.00;95196.50;4980966;28;20487;-48
2021/12/04 13:24:49;;;;;;;0.82;0.47;;;9.30;99.90;;;8.68;100.00;95191.06;4981403;28;20331;-49
2021/12/04 13:30:09;;;;;;;0.90;0.40;;;9.20;99.90;;;8.63;100.00;95195.75;4983173;28;20092;-46
2021/12/04 13:32:38;;;;;;;0.68;0.40;;;9.20;99.90;;;8.57;100.00;95195.22;4974527;28;20042;-46
2021/12/04 13:35:20;;;;;;;1.25;0.43;;;9.20;99.90;;;8.51;100.00;95186.91;4981868;28;20038;-43